sensor_id;sensor_type;location;lat;lon;timestamp;temperature;humidity
27647;DHT22;42229;51.230;6.240;2022-12-20T00:00:48;14.60;99.90
27647;DHT22;42229;51.230;6.240;2022-12-20T00:03:14;14.60;99.90
27647;DHT22;42229;51.230;6.240;2022-12-20T00:05:41;14.60;99.90
27647;DHT22;42229;51.230;6.240;2022-12-20T00:08:08;14.60;99.90
27647;DHT22;42229;51.230;6.240;2022-12-20T00:10:35;14.70;99.90
27647;DHT22;42229;51.230;6.240;2022-12-20T00:13:05;14.60;99.90
27647;DHT22;42229;51.230;6.240;2022-12-20T00:15:32;14.70;99.90
27647;DHT22;42229;51.230;6.240;2022-12-20T00:17:58;14.70;99.90
27647;DHT22;42229;51.230;6.240;2022-12-20T00:20:25;14.60;99.90
27647;DHT22;42229;51.230;6.240;2022-12-20T00:22:52;14.60;99.90
27647;DHT22;42229;51.230;6.240;2022-12-20T00:25:19;14.60;99.90
27647;DHT22;42229;51.230;6.240;2022-12-20T00:27:46;14.60;99.90
27647;DHT22;42229;51.230;6.240;2022-12-20T00:30:13;14.70;99.90
27647;DHT22;42229;51.230;6.240;2022-12-20T00:32:40;14.70;99.90
27647;DHT22;42229;51.230;6.240;2022-12-20T00:35:07;14.70;99.90
27647;DHT22;42229;51.230;6.240;2022-12-20T00:37:33;14.70;99.90
27647;DHT22;42229;51.230;6.240;2022-12-20T00:39:59;14.70;99.90
27647;DHT22;42229;51.230;6.240;2022-12-20T00:42:25;14.70;99.90
27647;DHT22;42229;51.230;6.240;2022-12-20T00:44:52;14.70;99.90
27647;DHT22;42229;51.230;6.240;2022-12-20T00:47:18;14.80;99.90
27647;DHT22;42229;51.230;6.240;2022-12-20T00:49:44;14.80;99.90
27647;DHT22;42229;51.230;6.240;2022-12-20T00:52:10;14.80;99.90
27647;DHT22;42229;51.230;6.240;2022-12-20T00:54:38;14.80;99.90
27647;DHT22;42229;51.230;6.240;2022-12-20T00:57:04;15.00;99.90
27647;DHT22;42229;51.230;6.240;2022-12-20T00:59:31;14.90;99.90
27647;DHT22;42229;51.230;6.240;2022-12-20T01:01:58;14.90;99.90
27647;DHT22;42229;51.230;6.240;2022-12-20T01:04:25;15.00;99.90
27647;DHT22;42229;51.230;6.240;2022-12-20T01:06:51;15.00;99.90
27647;DHT22;42229;51.230;6.240;2022-12-20T01:09:18;15.00;99.90
27647;DHT22;42229;51.230;6.240;2022-12-20T01:11:44;15.10;99.90
27647;DHT22;42229;51.230;6.240;2022-12-20T01:14:11;15.10;99.90
27647;DHT22;42229;51.230;6.240;2022-12-20T01:16:40;15.10;99.90
27647;DHT22;42229;51.230;6.240;2022-12-20T01:19:14;15.20;99.90
27647;DHT22;42229;51.230;6.240;2022-12-20T01:21:42;15.20;99.90
27647;DHT22;42229;51.230;6.240;2022-12-20T01:24:12;15.20;99.90
27647;DHT22;42229;51.230;6.240;2022-12-20T01:26:39;15.20;99.90
27647;DHT22;42229;51.230;6.240;2022-12-20T01:29:05;15.20;99.90
27647;DHT22;42229;51.230;6.240;2022-12-20T01:31:32;15.20;99.90
27647;DHT22;42229;51.230;6.240;2022-12-20T01:33:59;15.20;99.90
27647;DHT22;42229;51.230;6.240;2022-12-20T01:36:27;15.20;99.90
27647;DHT22;42229;51.230;6.240;2022-12-20T01:39:00;15.20;99.90
27647;DHT22;42229;51.230;6.240;2022-12-20T01:41:28;15.20;99.90
27647;DHT22;42229;51.230;6.240;2022-12-20T01:43:59;15.20;99.90
27647;DHT22;42229;51.230;6.240;2022-12-20T01:46:28;15.20;99.90
27647;DHT22;42229;51.230;6.240;2022-12-20T01:48:57;15.20;99.90
27647;DHT22;42229;51.230;6.240;2022-12-20T01:51:25;15.20;99.90
27647;DHT22;42229;51.230;6.240;2022-12-20T01:53:55;15.20;99.90
27647;DHT22;42229;51.230;6.240;2022-12-20T01:56:24;15.10;99.90
27647;DHT22;42229;51.230;6.240;2022-12-20T01:58:50;15.10;99.90
27647;DHT22;42229;51.230;6.240;2022-12-20T02:01:18;15.10;99.90
27647;DHT22;42229;51.230;6.240;2022-12-20T02:03:45;15.10;99.90
27647;DHT22;42229;51.230;6.240;2022-12-20T02:06:18;15.10;99.90
27647;DHT22;42229;51.230;6.240;2022-12-20T02:08:46;15.10;99.90
27647;DHT22;42229;51.230;6.240;2022-12-20T02:11:17;15.10;99.90
27647;DHT22;42229;51.230;6.240;2022-12-20T02:14:02;15.10;99.90
27647;DHT22;42229;51.230;6.240;2022-12-20T02:16:33;15.00;99.90
27647;DHT22;42229;51.230;6.240;2022-12-20T02:22:37;14.90;99.90
27647;DHT22;42229;51.230;6.240;2022-12-20T02:27:38;14.80;99.90
27647;DHT22;42229;51.230;6.240;2022-12-20T02:32:47;14.70;99.90
27647;DHT22;42229;51.230;6.240;2022-12-20T02:35:21;14.60;99.90
27647;DHT22;42229;51.230;6.240;2022-12-20T02:37:51;14.50;99.90
27647;DHT22;42229;51.230;6.240;2022-12-20T02:40:21;14.50;99.90
27647;DHT22;42229;51.230;6.240;2022-12-20T02:42:50;14.40;99.90
27647;DHT22;42229;51.230;6.240;2022-12-20T02:45:20;14.30;99.90
27647;DHT22;42229;51.230;6.240;2022-12-20T02:47:50;14.20;99.90
27647;DHT22;42229;51.230;6.240;2022-12-20T02:50:21;14.10;99.90
27647;DHT22;42229;51.230;6.240;2022-12-20T02:52:53;14.00;99.90
27647;DHT22;42229;51.230;6.240;2022-12-20T02:55:20;14.00;99.90
27647;DHT22;42229;51.230;6.240;2022-12-20T02:57:55;13.90;99.90
27647;DHT22;42229;51.230;6.240;2022-12-20T03:00:28;13.90;99.90
27647;DHT22;42229;51.230;6.240;2022-12-20T03:02:59;13.80;99.90
27647;DHT22;42229;51.230;6.240;2022-12-20T03:05:45;13.80;99.90
27647;DHT22;42229;51.230;6.240;2022-12-20T03:08:15;13.80;99.90
27647;DHT22;42229;51.230;6.240;2022-12-20T03:10:42;13.70;99.90
27647;DHT22;42229;51.230;6.240;2022-12-20T03:13:09;13.70;99.90
27647;DHT22;42229;51.230;6.240;2022-12-20T03:15:40;13.70;99.90
27647;DHT22;42229;51.230;6.240;2022-12-20T03:18:06;13.60;99.90
27647;DHT22;42229;51.230;6.240;2022-12-20T03:20:33;13.60;99.90
27647;DHT22;42229;51.230;6.240;2022-12-20T03:22:59;13.60;99.90
27647;DHT22;42229;51.230;6.240;2022-12-20T03:25:26;13.60;99.90
27647;DHT22;42229;51.230;6.240;2022-12-20T03:27:52;13.60;99.90
27647;DHT22;42229;51.230;6.240;2022-12-20T03:30:21;13.60;99.90
27647;DHT22;42229;51.230;6.240;2022-12-20T03:32:48;13.60;99.90
27647;DHT22;42229;51.230;6.240;2022-12-20T03:35:14;13.60;99.90
27647;DHT22;42229;51.230;6.240;2022-12-20T03:37:41;13.60;99.90
27647;DHT22;42229;51.230;6.240;2022-12-20T03:40:08;13.60;99.90
27647;DHT22;42229;51.230;6.240;2022-12-20T03:42:35;13.60;99.90
27647;DHT22;42229;51.230;6.240;2022-12-20T03:45:01;13.60;99.90
27647;DHT22;42229;51.230;6.240;2022-12-20T03:47:30;13.60;99.90
27647;DHT22;42229;51.230;6.240;2022-12-20T03:49:56;13.60;99.90
27647;DHT22;42229;51.230;6.240;2022-12-20T03:52:22;13.60;99.90
27647;DHT22;42229;51.230;6.240;2022-12-20T03:54:49;13.60;99.90
27647;DHT22;42229;51.230;6.240;2022-12-20T03:57:20;13.60;99.90
27647;DHT22;42229;51.230;6.240;2022-12-20T03:59:49;13.60;99.90
27647;DHT22;42229;51.230;6.240;2022-12-20T04:02:17;13.60;99.90
27647;DHT22;42229;51.230;6.240;2022-12-20T04:04:43;13.50;99.90
27647;DHT22;42229;51.230;6.240;2022-12-20T04:07:10;13.50;99.90
27647;DHT22;42229;51.230;6.240;2022-12-20T04:09:38;13.50;99.90
27647;DHT22;42229;51.230;6.240;2022-12-20T04:12:10;13.50;99.90
27647;DHT22;42229;51.230;6.240;2022-12-20T04:14:38;13.40;99.90
27647;DHT22;42229;51.230;6.240;2022-12-20T04:17:05;13.40;99.90
27647;DHT22;42229;51.230;6.240;2022-12-20T04:19:32;13.30;99.90
27647;DHT22;42229;51.230;6.240;2022-12-20T04:21:59;13.30;99.90
27647;DHT22;42229;51.230;6.240;2022-12-20T04:24:31;13.30;99.90
27647;DHT22;42229;51.230;6.240;2022-12-20T04:27:20;13.20;99.90
27647;DHT22;42229;51.230;6.240;2022-12-20T04:29:46;13.10;99.90
27647;DHT22;42229;51.230;6.240;2022-12-20T04:32:15;13.20;99.90
27647;DHT22;42229;51.230;6.240;2022-12-20T04:34:42;13.10;99.90
27647;DHT22;42229;51.230;6.240;2022-12-20T04:37:09;13.10;99.90
27647;DHT22;42229;51.230;6.240;2022-12-20T04:39:45;13.10;99.90
27647;DHT22;42229;51.230;6.240;2022-12-20T04:42:18;13.00;99.90
27647;DHT22;42229;51.230;6.240;2022-12-20T04:44:45;13.00;99.90
27647;DHT22;42229;51.230;6.240;2022-12-20T04:47:13;13.00;99.90
27647;DHT22;42229;51.230;6.240;2022-12-20T04:49:39;13.00;99.90
27647;DHT22;42229;51.230;6.240;2022-12-20T04:52:06;13.00;99.90
27647;DHT22;42229;51.230;6.240;2022-12-20T04:55:01;13.00;99.90
27647;DHT22;42229;51.230;6.240;2022-12-20T04:57:31;13.00;99.90
27647;DHT22;42229;51.230;6.240;2022-12-20T04:59:58;13.00;99.90
27647;DHT22;42229;51.230;6.240;2022-12-20T05:02:25;13.00;99.90
27647;DHT22;42229;51.230;6.240;2022-12-20T05:04:56;13.00;99.90
27647;DHT22;42229;51.230;6.240;2022-12-20T05:07:22;13.00;99.90
27647;DHT22;42229;51.230;6.240;2022-12-20T05:09:52;12.90;99.90
27647;DHT22;42229;51.230;6.240;2022-12-20T05:12:18;12.90;99.90
27647;DHT22;42229;51.230;6.240;2022-12-20T05:14:44;13.00;99.90
27647;DHT22;42229;51.230;6.240;2022-12-20T05:17:12;12.90;99.90
27647;DHT22;42229;51.230;6.240;2022-12-20T05:19:39;12.90;99.90
27647;DHT22;42229;51.230;6.240;2022-12-20T05:22:05;12.90;99.90
27647;DHT22;42229;51.230;6.240;2022-12-20T05:25:20;12.90;99.90
27647;DHT22;42229;51.230;6.240;2022-12-20T05:28:07;12.90;99.90
27647;DHT22;42229;51.230;6.240;2022-12-20T05:30:35;12.80;99.90
27647;DHT22;42229;51.230;6.240;2022-12-20T05:33:02;12.80;99.90
27647;DHT22;42229;51.230;6.240;2022-12-20T05:35:29;12.80;99.90
27647;DHT22;42229;51.230;6.240;2022-12-20T05:38:02;12.90;99.90
27647;DHT22;42229;51.230;6.240;2022-12-20T05:40:30;12.80;99.90
27647;DHT22;42229;51.230;6.240;2022-12-20T05:42:57;12.80;99.90
27647;DHT22;42229;51.230;6.240;2022-12-20T05:45:32;12.80;99.90
27647;DHT22;42229;51.230;6.240;2022-12-20T05:48:04;12.80;99.90
27647;DHT22;42229;51.230;6.240;2022-12-20T05:50:32;12.80;99.90
27647;DHT22;42229;51.230;6.240;2022-12-20T05:53:17;12.80;99.90
27647;DHT22;42229;51.230;6.240;2022-12-20T05:55:49;12.90;99.90
27647;DHT22;42229;51.230;6.240;2022-12-20T05:58:17;12.90;99.90
27647;DHT22;42229;51.230;6.240;2022-12-20T06:00:51;12.90;99.90
27647;DHT22;42229;51.230;6.240;2022-12-20T06:03:18;12.90;99.90
27647;DHT22;42229;51.230;6.240;2022-12-20T06:05:45;12.90;99.90
27647;DHT22;42229;51.230;6.240;2022-12-20T06:08:16;12.90;99.90
27647;DHT22;42229;51.230;6.240;2022-12-20T06:10:42;12.80;99.90
27647;DHT22;42229;51.230;6.240;2022-12-20T06:13:09;12.80;99.90
27647;DHT22;42229;51.230;6.240;2022-12-20T06:15:36;12.80;99.90
27647;DHT22;42229;51.230;6.240;2022-12-20T06:18:04;12.80;99.90
27647;DHT22;42229;51.230;6.240;2022-12-20T06:20:32;12.70;99.90
27647;DHT22;42229;51.230;6.240;2022-12-20T06:23:00;12.70;99.90
27647;DHT22;42229;51.230;6.240;2022-12-20T06:25:33;12.70;99.90
27647;DHT22;42229;51.230;6.240;2022-12-20T06:27:59;12.80;99.90
27647;DHT22;42229;51.230;6.240;2022-12-20T06:30:26;12.70;99.90
27647;DHT22;42229;51.230;6.240;2022-12-20T06:33:12;12.70;99.90
27647;DHT22;42229;51.230;6.240;2022-12-20T06:35:39;12.60;99.90
27647;DHT22;42229;51.230;6.240;2022-12-20T06:38:06;12.70;99.90
27647;DHT22;42229;51.230;6.240;2022-12-20T06:40:34;12.60;99.90
27647;DHT22;42229;51.230;6.240;2022-12-20T06:43:00;12.60;99.90
27647;DHT22;42229;51.230;6.240;2022-12-20T06:45:27;12.60;99.90
27647;DHT22;42229;51.230;6.240;2022-12-20T06:47:54;12.60;99.90
27647;DHT22;42229;51.230;6.240;2022-12-20T06:50:23;12.60;99.90
27647;DHT22;42229;51.230;6.240;2022-12-20T06:52:49;12.70;99.90
27647;DHT22;42229;51.230;6.240;2022-12-20T06:55:16;12.60;99.90
27647;DHT22;42229;51.230;6.240;2022-12-20T06:57:42;12.60;99.90
27647;DHT22;42229;51.230;6.240;2022-12-20T07:00:09;12.60;99.90
27647;DHT22;42229;51.230;6.240;2022-12-20T07:02:37;12.60;99.90
27647;DHT22;42229;51.230;6.240;2022-12-20T07:05:04;12.60;99.90
27647;DHT22;42229;51.230;6.240;2022-12-20T07:07:30;12.70;99.90
27647;DHT22;42229;51.230;6.240;2022-12-20T07:09:56;12.70;99.90
27647;DHT22;42229;51.230;6.240;2022-12-20T07:12:23;12.70;99.90
27647;DHT22;42229;51.230;6.240;2022-12-20T07:14:49;12.70;99.90
27647;DHT22;42229;51.230;6.240;2022-12-20T07:17:15;12.70;99.90
27647;DHT22;42229;51.230;6.240;2022-12-20T07:19:41;12.70;99.90
27647;DHT22;42229;51.230;6.240;2022-12-20T07:22:08;12.70;99.90
27647;DHT22;42229;51.230;6.240;2022-12-20T07:24:34;12.70;99.90
27647;DHT22;42229;51.230;6.240;2022-12-20T07:27:00;12.70;99.90
27647;DHT22;42229;51.230;6.240;2022-12-20T07:29:26;12.70;99.90
27647;DHT22;42229;51.230;6.240;2022-12-20T07:31:53;12.70;99.90
27647;DHT22;42229;51.230;6.240;2022-12-20T07:34:19;12.70;99.90
27647;DHT22;42229;51.230;6.240;2022-12-20T07:36:46;12.70;99.90
27647;DHT22;42229;51.230;6.240;2022-12-20T07:39:13;12.70;99.90
27647;DHT22;42229;51.230;6.240;2022-12-20T07:41:39;12.70;99.90
27647;DHT22;42229;51.230;6.240;2022-12-20T07:44:10;12.70;99.90
27647;DHT22;42229;51.230;6.240;2022-12-20T07:46:37;12.70;99.90
27647;DHT22;42229;51.230;6.240;2022-12-20T07:49:03;12.70;99.90
27647;DHT22;42229;51.230;6.240;2022-12-20T07:51:31;12.70;99.90
27647;DHT22;42229;51.230;6.240;2022-12-20T07:54:01;12.70;99.90
27647;DHT22;42229;51.230;6.240;2022-12-20T07:56:35;12.70;99.90
27647;DHT22;42229;51.230;6.240;2022-12-20T07:59:04;12.70;99.90
27647;DHT22;42229;51.230;6.240;2022-12-20T08:01:31;12.70;99.90
27647;DHT22;42229;51.230;6.240;2022-12-20T08:04:04;12.80;99.90
27647;DHT22;42229;51.230;6.240;2022-12-20T08:06:33;12.80;99.90
27647;DHT22;42229;51.230;6.240;2022-12-20T08:09:03;12.80;99.90
27647;DHT22;42229;51.230;6.240;2022-12-20T08:11:30;12.90;99.90
27647;DHT22;42229;51.230;6.240;2022-12-20T08:13:58;13.00;99.90
27647;DHT22;42229;51.230;6.240;2022-12-20T08:16:25;13.00;99.90
27647;DHT22;42229;51.230;6.240;2022-12-20T08:18:51;13.10;99.90
27647;DHT22;42229;51.230;6.240;2022-12-20T08:21:17;13.20;99.90
27647;DHT22;42229;51.230;6.240;2022-12-20T08:23:43;13.30;99.90
27647;DHT22;42229;51.230;6.240;2022-12-20T08:26:10;13.40;99.90
27647;DHT22;42229;51.230;6.240;2022-12-20T08:28:36;13.50;99.90
27647;DHT22;42229;51.230;6.240;2022-12-20T08:31:04;13.50;99.90
27647;DHT22;42229;51.230;6.240;2022-12-20T08:33:32;13.60;99.90
27647;DHT22;42229;51.230;6.240;2022-12-20T08:36:00;13.70;99.90
27647;DHT22;42229;51.230;6.240;2022-12-20T08:38:28;13.80;99.90
27647;DHT22;42229;51.230;6.240;2022-12-20T08:41:00;13.80;99.90
27647;DHT22;42229;51.230;6.240;2022-12-20T08:43:27;13.90;99.90
27647;DHT22;42229;51.230;6.240;2022-12-20T08:45:53;14.00;99.90
27647;DHT22;42229;51.230;6.240;2022-12-20T08:48:20;14.00;99.90
27647;DHT22;42229;51.230;6.240;2022-12-20T08:50:47;14.10;99.90
27647;DHT22;42229;51.230;6.240;2022-12-20T08:53:19;14.10;99.90
27647;DHT22;42229;51.230;6.240;2022-12-20T08:55:45;14.20;99.90
27647;DHT22;42229;51.230;6.240;2022-12-20T08:58:12;14.20;99.90
27647;DHT22;42229;51.230;6.240;2022-12-20T09:00:38;14.30;99.90
27647;DHT22;42229;51.230;6.240;2022-12-20T09:03:04;14.30;99.90
27647;DHT22;42229;51.230;6.240;2022-12-20T09:05:32;14.30;99.90
27647;DHT22;42229;51.230;6.240;2022-12-20T09:07:58;14.40;99.90
27647;DHT22;42229;51.230;6.240;2022-12-20T09:10:24;14.40;99.90
27647;DHT22;42229;51.230;6.240;2022-12-20T09:12:51;14.40;99.90
27647;DHT22;42229;51.230;6.240;2022-12-20T09:15:17;14.40;99.90
27647;DHT22;42229;51.230;6.240;2022-12-20T09:17:43;14.40;99.90
27647;DHT22;42229;51.230;6.240;2022-12-20T09:20:09;14.40;99.90
27647;DHT22;42229;51.230;6.240;2022-12-20T09:22:36;14.40;99.90
27647;DHT22;42229;51.230;6.240;2022-12-20T09:25:02;14.50;99.90
27647;DHT22;42229;51.230;6.240;2022-12-20T09:27:29;14.40;99.90
27647;DHT22;42229;51.230;6.240;2022-12-20T09:29:55;14.40;99.90
27647;DHT22;42229;51.230;6.240;2022-12-20T09:32:21;14.40;99.90
27647;DHT22;42229;51.230;6.240;2022-12-20T09:34:47;14.40;99.90
27647;DHT22;42229;51.230;6.240;2022-12-20T09:37:14;14.40;99.90
27647;DHT22;42229;51.230;6.240;2022-12-20T09:39:40;14.40;99.90
27647;DHT22;42229;51.230;6.240;2022-12-20T09:42:07;14.40;99.90
27647;DHT22;42229;51.230;6.240;2022-12-20T09:44:35;14.40;99.90
27647;DHT22;42229;51.230;6.240;2022-12-20T09:47:04;14.50;99.90
27647;DHT22;42229;51.230;6.240;2022-12-20T09:49:38;14.50;99.90
27647;DHT22;42229;51.230;6.240;2022-12-20T09:55:55;14.50;99.90
27647;DHT22;42229;51.230;6.240;2022-12-20T10:00:55;14.60;99.90
27647;DHT22;42229;51.230;6.240;2022-12-20T10:03:29;14.70;99.90
27647;DHT22;42229;51.230;6.240;2022-12-20T10:06:15;14.70;99.90
27647;DHT22;42229;51.230;6.240;2022-12-20T10:14:08;14.80;99.90
27647;DHT22;42229;51.230;6.240;2022-12-20T10:16:41;14.80;99.90
27647;DHT22;42229;51.230;6.240;2022-12-20T10:20:11;14.80;99.90
27647;DHT22;42229;51.230;6.240;2022-12-20T10:24:49;14.80;99.90
27647;DHT22;42229;51.230;6.240;2022-12-20T10:27:27;14.80;99.90
27647;DHT22;42229;51.230;6.240;2022-12-20T10:29:53;14.80;99.90
27647;DHT22;42229;51.230;6.240;2022-12-20T10:32:21;14.80;99.90
27647;DHT22;42229;51.230;6.240;2022-12-20T10:34:51;14.90;99.90
27647;DHT22;42229;51.230;6.240;2022-12-20T10:37:21;14.90;99.90
27647;DHT22;42229;51.230;6.240;2022-12-20T10:39:48;14.90;99.90
27647;DHT22;42229;51.230;6.240;2022-12-20T10:45:26;14.90;99.90
27647;DHT22;42229;51.230;6.240;2022-12-20T10:47:59;14.90;99.90
27647;DHT22;42229;51.230;6.240;2022-12-20T10:50:26;14.90;99.90
27647;DHT22;42229;51.230;6.240;2022-12-20T10:53:03;14.90;99.90
27647;DHT22;42229;51.230;6.240;2022-12-20T10:55:37;14.90;99.90
27647;DHT22;42229;51.230;6.240;2022-12-20T11:00:44;15.00;99.90
27647;DHT22;42229;51.230;6.240;2022-12-20T11:03:17;15.10;99.90
27647;DHT22;42229;51.230;6.240;2022-12-20T11:08:41;15.10;99.90
27647;DHT22;42229;51.230;6.240;2022-12-20T11:13:42;15.20;99.90
27647;DHT22;42229;51.230;6.240;2022-12-20T11:16:22;15.20;99.90
27647;DHT22;42229;51.230;6.240;2022-12-20T11:18:53;15.20;99.90
27647;DHT22;42229;51.230;6.240;2022-12-20T11:30:18;15.30;99.90
27647;DHT22;42229;51.230;6.240;2022-12-20T11:35:35;15.30;99.90
27647;DHT22;42229;51.230;6.240;2022-12-20T11:38:20;15.30;99.90
27647;DHT22;42229;51.230;6.240;2022-12-20T11:41:23;15.30;99.90
27647;DHT22;42229;51.230;6.240;2022-12-20T11:46:50;15.30;99.90
27647;DHT22;42229;51.230;6.240;2022-12-20T11:49:28;15.40;99.90
27647;DHT22;42229;51.230;6.240;2022-12-20T11:54:45;15.50;99.90
27647;DHT22;42229;51.230;6.240;2022-12-20T11:57:17;15.50;99.90
27647;DHT22;42229;51.230;6.240;2022-12-20T12:02:16;15.60;99.90
27647;DHT22;42229;51.230;6.240;2022-12-20T12:04:49;15.60;99.90
27647;DHT22;42229;51.230;6.240;2022-12-20T12:07:21;15.60;99.90
27647;DHT22;42229;51.230;6.240;2022-12-20T12:09:52;15.60;99.90
27647;DHT22;42229;51.230;6.240;2022-12-20T12:12:28;15.60;99.90
27647;DHT22;42229;51.230;6.240;2022-12-20T12:17:47;15.40;99.90
27647;DHT22;42229;51.230;6.240;2022-12-20T12:22:45;15.00;99.90
27647;DHT22;42229;51.230;6.240;2022-12-20T12:25:17;14.80;99.90
27647;DHT22;42229;51.230;6.240;2022-12-20T12:27:44;14.60;99.90
27647;DHT22;42229;51.230;6.240;2022-12-20T12:30:11;14.40;99.90
27647;DHT22;42229;51.230;6.240;2022-12-20T12:32:45;14.30;99.90
27647;DHT22;42229;51.230;6.240;2022-12-20T12:40:52;13.90;99.90
27647;DHT22;42229;51.230;6.240;2022-12-20T12:46:07;13.70;99.90
27647;DHT22;42229;51.230;6.240;2022-12-20T12:48:38;13.70;99.90
27647;DHT22;42229;51.230;6.240;2022-12-20T12:51:06;13.60;99.90
27647;DHT22;42229;51.230;6.240;2022-12-20T12:53:37;13.60;99.90
27647;DHT22;42229;51.230;6.240;2022-12-20T12:56:29;13.50;99.90
27647;DHT22;42229;51.230;6.240;2022-12-20T13:09:18;13.30;99.90
27647;DHT22;42229;51.230;6.240;2022-12-20T13:11:47;13.30;99.90
27647;DHT22;42229;51.230;6.240;2022-12-20T13:16:46;13.30;99.90
27647;DHT22;42229;51.230;6.240;2022-12-20T13:19:34;13.30;99.90
27647;DHT22;42229;51.230;6.240;2022-12-20T13:27:14;13.20;99.90
27647;DHT22;42229;51.230;6.240;2022-12-20T13:35:42;13.10;99.90
27647;DHT22;42229;51.230;6.240;2022-12-20T13:40:38;13.10;99.90
27647;DHT22;42229;51.230;6.240;2022-12-20T13:45:46;13.00;99.90
27647;DHT22;42229;51.230;6.240;2022-12-20T13:48:18;13.00;99.90
27647;DHT22;42229;51.230;6.240;2022-12-20T13:50:50;13.00;99.90
27647;DHT22;42229;51.230;6.240;2022-12-20T13:53:19;13.00;99.90
27647;DHT22;42229;51.230;6.240;2022-12-20T13:55:46;13.00;99.90
27647;DHT22;42229;51.230;6.240;2022-12-20T13:58:15;13.00;99.90
27647;DHT22;42229;51.230;6.240;2022-12-20T14:00:53;12.90;99.90
27647;DHT22;42229;51.230;6.240;2022-12-20T14:03:21;12.90;99.90
27647;DHT22;42229;51.230;6.240;2022-12-20T14:05:50;12.90;99.90
27647;DHT22;42229;51.230;6.240;2022-12-20T14:08:21;12.90;99.90
27647;DHT22;42229;51.230;6.240;2022-12-20T14:10:51;12.90;99.90
27647;DHT22;42229;51.230;6.240;2022-12-20T14:13:19;12.90;99.90
27647;DHT22;42229;51.230;6.240;2022-12-20T14:15:46;12.90;99.90
27647;DHT22;42229;51.230;6.240;2022-12-20T14:18:19;12.80;99.90
27647;DHT22;42229;51.230;6.240;2022-12-20T14:20:54;12.80;99.90
27647;DHT22;42229;51.230;6.240;2022-12-20T14:26:29;12.80;99.90
27647;DHT22;42229;51.230;6.240;2022-12-20T14:29:00;12.80;99.90
27647;DHT22;42229;51.230;6.240;2022-12-20T14:36:39;12.80;99.90
27647;DHT22;42229;51.230;6.240;2022-12-20T14:39:26;12.80;99.90
27647;DHT22;42229;51.230;6.240;2022-12-20T14:41:55;12.80;99.90
27647;DHT22;42229;51.230;6.240;2022-12-20T14:44:22;12.80;99.90
27647;DHT22;42229;51.230;6.240;2022-12-20T14:46:59;12.80;99.90
27647;DHT22;42229;51.230;6.240;2022-12-20T14:49:31;12.80;99.90
27647;DHT22;42229;51.230;6.240;2022-12-20T14:52:15;12.80;99.90
27647;DHT22;42229;51.230;6.240;2022-12-20T14:55:07;12.80;99.90
27647;DHT22;42229;51.230;6.240;2022-12-20T14:58:04;12.80;99.90
27647;DHT22;42229;51.230;6.240;2022-12-20T15:00:33;12.80;99.90
27647;DHT22;42229;51.230;6.240;2022-12-20T15:03:15;12.70;99.90
27647;DHT22;42229;51.230;6.240;2022-12-20T15:08:18;12.70;99.90
27647;DHT22;42229;51.230;6.240;2022-12-20T15:11:01;12.70;99.90
27647;DHT22;42229;51.230;6.240;2022-12-20T15:13:43;12.70;99.90
27647;DHT22;42229;51.230;6.240;2022-12-20T15:18:47;12.80;99.90
27647;DHT22;42229;51.230;6.240;2022-12-20T15:23:58;12.70;99.90
27647;DHT22;42229;51.230;6.240;2022-12-20T15:26:25;12.70;99.90
27647;DHT22;42229;51.230;6.240;2022-12-20T15:28:52;12.70;99.90
27647;DHT22;42229;51.230;6.240;2022-12-20T15:31:19;12.70;99.90
27647;DHT22;42229;51.230;6.240;2022-12-20T15:33:46;12.70;99.90
27647;DHT22;42229;51.230;6.240;2022-12-20T15:36:16;12.70;99.90
27647;DHT22;42229;51.230;6.240;2022-12-20T15:38:44;12.70;99.90
27647;DHT22;42229;51.230;6.240;2022-12-20T15:41:12;12.70;99.90
27647;DHT22;42229;51.230;6.240;2022-12-20T15:43:41;12.70;99.90
27647;DHT22;42229;51.230;6.240;2022-12-20T15:46:07;12.70;99.90
27647;DHT22;42229;51.230;6.240;2022-12-20T15:48:34;12.70;99.90
27647;DHT22;42229;51.230;6.240;2022-12-20T15:51:00;12.70;99.90
27647;DHT22;42229;51.230;6.240;2022-12-20T15:53:29;12.70;99.90
27647;DHT22;42229;51.230;6.240;2022-12-20T15:55:56;12.80;99.90
27647;DHT22;42229;51.230;6.240;2022-12-20T15:58:23;12.80;99.90
27647;DHT22;42229;51.230;6.240;2022-12-20T16:00:52;12.80;99.90
27647;DHT22;42229;51.230;6.240;2022-12-20T16:03:20;12.80;99.90
27647;DHT22;42229;51.230;6.240;2022-12-20T16:05:49;12.80;99.90
27647;DHT22;42229;51.230;6.240;2022-12-20T16:08:16;12.80;99.90
27647;DHT22;42229;51.230;6.240;2022-12-20T16:10:44;12.80;99.90
27647;DHT22;42229;51.230;6.240;2022-12-20T16:13:12;12.80;99.90
27647;DHT22;42229;51.230;6.240;2022-12-20T16:15:42;12.80;99.90
27647;DHT22;42229;51.230;6.240;2022-12-20T16:18:08;12.80;99.90
27647;DHT22;42229;51.230;6.240;2022-12-20T16:20:34;12.80;99.90
27647;DHT22;42229;51.230;6.240;2022-12-20T16:23:01;12.80;99.90
27647;DHT22;42229;51.230;6.240;2022-12-20T16:25:29;12.80;99.90
27647;DHT22;42229;51.230;6.240;2022-12-20T16:27:56;12.80;99.90
27647;DHT22;42229;51.230;6.240;2022-12-20T16:30:23;12.80;99.90
27647;DHT22;42229;51.230;6.240;2022-12-20T16:32:50;12.80;99.90
27647;DHT22;42229;51.230;6.240;2022-12-20T16:37:58;12.80;99.90
27647;DHT22;42229;51.230;6.240;2022-12-20T16:40:26;12.80;99.90
27647;DHT22;42229;51.230;6.240;2022-12-20T16:42:53;12.80;99.90
27647;DHT22;42229;51.230;6.240;2022-12-20T16:45:22;12.80;99.90
27647;DHT22;42229;51.230;6.240;2022-12-20T16:47:50;12.80;99.90
27647;DHT22;42229;51.230;6.240;2022-12-20T16:50:18;12.80;99.90
27647;DHT22;42229;51.230;6.240;2022-12-20T16:52:45;12.80;99.90
27647;DHT22;42229;51.230;6.240;2022-12-20T16:55:23;12.80;99.90
27647;DHT22;42229;51.230;6.240;2022-12-20T16:57:51;12.80;99.90
27647;DHT22;42229;51.230;6.240;2022-12-20T17:00:19;12.80;99.90
27647;DHT22;42229;51.230;6.240;2022-12-20T17:02:48;12.80;99.90
27647;DHT22;42229;51.230;6.240;2022-12-20T17:05:29;12.90;99.90
27647;DHT22;42229;51.230;6.240;2022-12-20T17:07:57;12.80;99.90
27647;DHT22;42229;51.230;6.240;2022-12-20T17:10:24;12.80;99.90
27647;DHT22;42229;51.230;6.240;2022-12-20T17:12:50;12.80;99.90
27647;DHT22;42229;51.230;6.240;2022-12-20T17:15:21;12.80;99.90
27647;DHT22;42229;51.230;6.240;2022-12-20T17:17:49;12.90;99.90
27647;DHT22;42229;51.230;6.240;2022-12-20T17:20:16;12.90;99.90
27647;DHT22;42229;51.230;6.240;2022-12-20T17:22:44;12.90;99.90
27647;DHT22;42229;51.230;6.240;2022-12-20T17:25:24;12.90;99.90
27647;DHT22;42229;51.230;6.240;2022-12-20T17:27:53;12.90;99.90
27647;DHT22;42229;51.230;6.240;2022-12-20T17:30:21;12.90;99.90
27647;DHT22;42229;51.230;6.240;2022-12-20T17:32:48;12.90;99.90
27647;DHT22;42229;51.230;6.240;2022-12-20T17:35:27;13.00;99.90
27647;DHT22;42229;51.230;6.240;2022-12-20T17:37:57;13.00;99.90
27647;DHT22;42229;51.230;6.240;2022-12-20T17:40:25;13.00;99.90